createdAt,value
2018-11-10T00:00:10.197Z,98.57
2018-11-10T00:02:38.584Z,98.29
2018-11-10T00:05:07.004Z,98.36
2018-11-10T00:07:35.381Z,98.13
2018-11-10T00:10:03.961Z,98.15
2018-11-10T00:12:32.296Z,97.76
2018-11-10T00:15:01.605Z,97.96
2018-11-10T00:17:29.976Z,97.71
2018-11-10T00:19:58.843Z,97.80
2018-11-10T00:22:27.255Z,97.97
2018-11-10T00:24:55.738Z,97.74
2018-11-10T00:27:24.171Z,97.76
2018-11-10T00:29:53.362Z,97.83
2018-11-10T00:32:22.157Z,98.06
2018-11-10T00:34:50.583Z,97.63
2018-11-10T00:37:18.917Z,97.04
2018-11-10T00:39:47.341Z,97.13
2018-11-10T00:42:15.702Z,97.54
2018-11-10T00:44:44.116Z,97.13
2018-11-10T00:47:12.489Z,97.53
2018-11-10T00:49:40.913Z,97.05
2018-11-10T00:52:09.355Z,97.28
2018-11-10T00:54:37.785Z,97.17
2018-11-10T00:57:06.177Z,97.86
2018-11-10T00:59:34.528Z,97.99
2018-11-10T01:02:02.911Z,98.21
2018-11-10T01:04:31.290Z,98.27
2018-11-10T01:06:59.657Z,97.78
2018-11-10T01:09:28.153Z,98.05
2018-11-10T01:11:56.516Z,97.47
2018-11-10T01:14:25.314Z,97.39
2018-11-10T01:16:53.667Z,97.16
2018-11-10T01:19:22.045Z,97.04
2018-11-10T01:21:50.414Z,97.19
2018-11-10T01:24:18.792Z,97.20
2018-11-10T01:26:47.139Z,97.65
2018-11-10T01:29:15.561Z,97.82
2018-11-10T01:31:43.949Z,98.22
2018-11-10T01:34:12.327Z,98.26
2018-11-10T01:36:40.688Z,98.03
2018-11-10T01:39:09.973Z,98.44
2018-11-10T01:41:38.969Z,98.44
2018-11-10T01:44:07.965Z,98.56
2018-11-10T01:46:36.463Z,98.27
2018-11-10T01:49:05.029Z,97.92
2018-11-10T01:51:33.421Z,98.12
2018-11-10T01:54:02.081Z,97.93
2018-11-10T01:56:30.981Z,98.10
2018-11-10T01:58:59.429Z,98.16
2018-11-10T02:01:28.665Z,98.03
2018-11-10T02:03:57.136Z,98.24
2018-11-10T02:06:25.572Z,97.77
2018-11-10T02:08:53.941Z,97.98
2018-11-10T02:11:22.337Z,97.66
2018-11-10T02:13:50.704Z,97.46
2018-11-10T02:16:19.099Z,97.79
2018-11-10T02:18:47.475Z,97.78
2018-11-10T02:21:15.832Z,98.33
2018-11-10T02:23:44.247Z,97.90
2018-11-10T02:26:12.645Z,97.89
2018-11-10T02:28:41.055Z,97.99
2018-11-10T02:31:09.410Z,98.00
2018-11-10T02:33:37.785Z,98.52
2018-11-10T02:36:06.165Z,98.05
2018-11-10T02:38:34.613Z,98.83
2018-11-10T02:41:03.033Z,98.41
2018-11-10T02:43:31.430Z,97.88
2018-11-10T02:45:59.781Z,97.78
2018-11-10T02:48:28.161Z,97.72
2018-11-10T02:50:56.561Z,98.10
2018-11-10T02:53:24.912Z,97.98
2018-11-10T02:55:53.272Z,97.92
2018-11-10T02:58:21.633Z,98.53
2018-11-10T03:00:50.025Z,98.66
2018-11-10T03:03:18.395Z,97.87
2018-11-10T03:05:46.760Z,97.96
2018-11-10T03:08:15.117Z,97.92
2018-11-10T03:10:44.143Z,97.81
2018-11-10T03:13:12.916Z,97.80
2018-11-10T03:15:41.292Z,97.77
2018-11-10T03:18:09.642Z,98.15
2018-11-10T03:20:38.032Z,98.18
2018-11-10T03:23:06.434Z,98.00
2018-11-10T03:25:34.844Z,98.01
2018-11-10T03:28:03.257Z,98.50
2018-11-10T03:30:31.701Z,97.71
2018-11-10T03:33:00.069Z,97.99
2018-11-10T03:35:28.465Z,98.35
2018-11-10T03:37:56.891Z,98.53
2018-11-10T03:40:26.073Z,98.71
2018-11-10T03:42:55.298Z,98.67
2018-11-10T03:45:23.986Z,98.92
2018-11-10T03:47:52.496Z,98.93
2018-11-10T03:50:20.911Z,98.90
2018-11-10T03:52:49.274Z,98.77
2018-11-10T03:55:17.687Z,99.03
2018-11-10T03:57:46.087Z,99.11
2018-11-10T04:00:15.385Z,98.68
2018-11-10T04:02:45.009Z,98.67
2018-11-10T04:05:13.873Z,99.08
2018-11-10T04:07:43.572Z,98.89
2018-11-10T04:10:12.416Z,98.87
2018-11-10T04:12:40.960Z,99.53
2018-11-10T04:15:09.365Z,99.50
2018-11-10T04:17:37.772Z,99.91
2018-11-10T04:20:07.222Z,99.67
2018-11-10T04:22:36.624Z,100.00
2018-11-10T04:25:06.623Z,100.00
2018-11-10T04:27:35.195Z,100.00
2018-11-10T04:30:04.729Z,100.00
2018-11-10T04:32:33.625Z,100.00
2018-11-10T04:35:02.014Z,100.00
2018-11-10T04:37:30.402Z,100.00
2018-11-10T04:39:59.193Z,100.00
2018-11-10T04:42:27.552Z,100.00
2018-11-10T04:44:55.958Z,100.00
2018-11-10T04:47:24.364Z,100.00
2018-11-10T04:49:52.770Z,100.00
2018-11-10T04:52:21.133Z,100.00
2018-11-10T04:54:49.519Z,100.00
2018-11-10T04:57:17.885Z,100.00
2018-11-10T04:59:46.227Z,100.00
2018-11-10T05:02:14.607Z,100.00
2018-11-10T05:04:43.011Z,100.00
2018-11-10T05:07:11.403Z,100.00
2018-11-10T05:09:39.752Z,100.00
2018-11-10T05:12:08.099Z,100.00
2018-11-10T05:14:36.481Z,100.00
2018-11-10T05:17:05.428Z,100.00
2018-11-10T05:19:33.801Z,100.00
2018-11-10T05:22:02.305Z,100.00
2018-11-10T05:24:30.706Z,100.00
2018-11-10T05:26:59.120Z,100.00
2018-11-10T05:29:27.488Z,100.00
2018-11-10T05:31:56.452Z,100.00
2018-11-10T05:34:24.810Z,100.00
2018-11-10T05:36:53.184Z,100.00
2018-11-10T05:39:21.533Z,100.00
2018-11-10T05:41:50.321Z,100.00
2018-11-10T05:44:19.981Z,100.00
2018-11-10T05:46:48.364Z,100.00
2018-11-10T05:49:16.956Z,100.00
2018-11-10T05:51:46.160Z,100.00
2018-11-10T05:54:14.592Z,100.00
2018-11-10T05:56:43.712Z,100.00
2018-11-10T05:59:12.085Z,100.00
2018-11-10T06:01:40.463Z,100.00
2018-11-10T06:04:08.867Z,100.00
2018-11-10T06:06:37.320Z,100.00
2018-11-10T06:09:08.365Z,100.00
2018-11-10T06:11:37.252Z,100.00
2018-11-10T06:14:05.972Z,100.00
2018-11-10T06:16:34.482Z,100.00
2018-11-10T06:19:03.302Z,100.00
2018-11-10T06:21:31.679Z,100.00
2018-11-10T06:24:00.032Z,100.00
2018-11-10T06:26:28.989Z,100.00
2018-11-10T06:28:57.385Z,100.00
2018-11-10T06:31:25.753Z,100.00
2018-11-10T06:33:54.405Z,100.00
2018-11-10T06:36:22.789Z,100.00
2018-11-10T06:38:51.335Z,100.00
2018-11-10T06:41:19.740Z,100.00
2018-11-10T06:43:48.597Z,100.00
2018-11-10T06:46:17.172Z,100.00
2018-11-10T06:48:45.565Z,100.00
2018-11-10T06:51:13.920Z,100.00
2018-11-10T06:53:42.529Z,100.00
2018-11-10T06:56:11.492Z,100.00
2018-11-10T06:58:40.826Z,100.00
2018-11-10T07:01:09.635Z,100.00
2018-11-10T07:03:38.099Z,100.00
2018-11-10T07:06:06.833Z,100.00
2018-11-10T07:08:35.201Z,100.00
2018-11-10T07:11:03.619Z,100.00
2018-11-10T07:13:31.953Z,100.00
2018-11-10T07:16:00.296Z,100.00
2018-11-10T07:18:28.812Z,100.00
2018-11-10T07:20:57.166Z,100.00
2018-11-10T07:23:25.539Z,100.00
2018-11-10T07:25:53.917Z,100.00
2018-11-10T07:28:22.430Z,100.00
2018-11-10T07:30:51.049Z,100.00
2018-11-10T07:33:19.407Z,100.00
2018-11-10T07:35:47.807Z,100.00
2018-11-10T07:38:16.185Z,100.00
2018-11-10T07:40:44.533Z,100.00
2018-11-10T07:43:13.143Z,100.00
2018-11-10T07:45:41.570Z,100.00
2018-11-10T07:48:10.006Z,100.00
2018-11-10T07:50:38.395Z,100.00
2018-11-10T07:53:06.804Z,100.00
2018-11-10T07:55:35.319Z,100.00
2018-11-10T07:58:03.663Z,100.00
2018-11-10T08:00:32.148Z,100.00
2018-11-10T08:03:01.039Z,100.00
2018-11-10T08:05:29.863Z,100.00
2018-11-10T08:07:58.267Z,100.00
2018-11-10T08:10:26.658Z,100.00
2018-11-10T08:12:55.005Z,100.00
2018-11-10T08:15:23.581Z,100.00
2018-11-10T08:17:52.582Z,100.00
2018-11-10T08:20:21.366Z,100.00
2018-11-10T08:22:49.953Z,100.00
2018-11-10T08:25:18.327Z,100.00
2018-11-10T08:27:46.681Z,100.00
2018-11-10T08:30:15.735Z,100.00
2018-11-10T08:32:44.529Z,100.00
2018-11-10T08:35:14.851Z,100.00
2018-11-10T08:37:43.368Z,100.00
2018-11-10T08:40:14.361Z,100.00
2018-11-10T08:42:42.824Z,100.00
2018-11-10T08:45:12.470Z,100.00
2018-11-10T08:47:41.557Z,100.00
2018-11-10T08:50:11.164Z,99.95
2018-11-10T08:52:39.949Z,100.00
2018-11-10T08:55:08.947Z,99.42
2018-11-10T08:57:38.038Z,99.57
2018-11-10T09:00:07.823Z,99.48
2018-11-10T09:02:36.905Z,98.94
2018-11-10T09:05:06.247Z,99.39
2018-11-10T09:07:34.803Z,99.14
2018-11-10T09:10:03.212Z,98.81
2018-11-10T09:12:31.562Z,98.98
2018-11-10T09:14:59.975Z,98.53
2018-11-10T09:17:28.871Z,98.16
2018-11-10T09:19:58.606Z,98.35
2018-11-10T09:22:27.516Z,98.13
2018-11-10T09:24:55.975Z,97.87
2018-11-10T09:27:24.338Z,97.83
2018-11-10T09:29:52.771Z,98.03
2018-11-10T09:32:21.113Z,97.71
2018-11-10T09:34:49.488Z,96.95
2018-11-10T09:37:17.912Z,97.00
2018-11-10T09:39:46.856Z,96.43
2018-11-10T09:42:15.273Z,96.45
2018-11-10T09:44:43.668Z,95.52
2018-11-10T09:47:13.345Z,96.05
2018-11-10T09:49:41.753Z,94.93
2018-11-10T09:52:10.107Z,95.16
2018-11-10T09:54:38.521Z,95.07
2018-11-10T09:57:06.924Z,94.89
2018-11-10T09:59:35.321Z,94.78
2018-11-10T10:02:04.047Z,94.03
2018-11-10T10:04:32.102Z,94.35
2018-11-10T10:07:00.465Z,93.50
2018-11-10T10:09:28.855Z,93.77
2018-11-10T10:11:57.291Z,92.63
2018-11-10T10:14:25.669Z,92.40
2018-11-10T10:16:54.048Z,91.52
2018-11-10T10:19:22.469Z,91.24
2018-11-10T10:21:50.918Z,91.04
2018-11-10T10:24:19.265Z,90.75
2018-11-10T10:26:47.620Z,92.01
2018-11-10T10:29:16.023Z,90.14
2018-11-10T10:31:44.531Z,90.65
2018-11-10T10:34:12.958Z,90.69
2018-11-10T10:36:41.293Z,90.11
2018-11-10T10:39:10.315Z,90.48
2018-11-10T10:41:39.307Z,90.12
2018-11-10T10:44:08.699Z,90.52
2018-11-10T10:46:37.112Z,90.17
2018-11-10T10:49:06.295Z,89.61
2018-11-10T10:51:35.061Z,90.25
2018-11-10T10:54:03.436Z,89.53
2018-11-10T10:56:31.855Z,88.87
2018-11-10T10:59:00.213Z,90.18
2018-11-10T11:01:33.836Z,88.79
2018-11-10T11:04:09.389Z,88.95
2018-11-10T11:06:37.741Z,89.00
2018-11-10T11:09:07.406Z,88.72
2018-11-10T11:11:35.882Z,88.28
2018-11-10T11:14:04.235Z,88.63
2018-11-10T11:16:32.581Z,88.49
2018-11-10T11:19:00.945Z,87.21
2018-11-10T11:21:29.329Z,87.04
2018-11-10T11:23:57.701Z,86.86
2018-11-10T11:26:26.073Z,86.67
2018-11-10T11:28:54.451Z,87.43
2018-11-10T11:31:22.849Z,86.34
2018-11-10T11:33:51.273Z,86.69
2018-11-10T11:36:19.616Z,87.30
2018-11-10T11:38:47.997Z,86.14
2018-11-10T11:41:16.433Z,86.03
2018-11-10T11:43:44.785Z,86.00
2018-11-10T11:46:13.148Z,86.05
2018-11-10T11:48:41.524Z,86.17
2018-11-10T11:51:09.963Z,86.07
2018-11-10T11:53:38.388Z,86.49
2018-11-10T11:56:06.748Z,85.70
2018-11-10T11:58:35.143Z,86.39
2018-11-10T12:01:03.744Z,86.47
2018-11-10T12:03:32.109Z,85.70
2018-11-10T12:06:00.471Z,85.95
2018-11-10T12:08:29.008Z,85.91
2018-11-10T12:10:57.385Z,85.47
2018-11-10T12:13:25.758Z,84.93
2018-11-10T12:15:54.132Z,85.65
2018-11-10T12:18:22.545Z,85.02
2018-11-10T12:20:50.971Z,85.04
2018-11-10T12:23:19.349Z,84.86
2018-11-10T12:25:47.933Z,85.00
2018-11-10T12:28:16.332Z,85.44
2018-11-10T12:30:44.719Z,84.86
2018-11-10T12:33:13.123Z,84.19
2018-11-10T12:35:41.664Z,84.95
2018-11-10T12:38:10.038Z,84.34
2018-11-10T12:40:38.408Z,84.88
2018-11-10T12:43:06.852Z,85.21
2018-11-10T12:45:35.227Z,84.78
2018-11-10T12:48:03.612Z,85.02
2018-11-10T12:50:31.979Z,84.85
2018-11-10T12:53:00.452Z,84.99
2018-11-10T12:55:28.816Z,84.81
2018-11-10T12:57:57.234Z,84.37
2018-11-10T13:00:25.629Z,84.85
2018-11-10T13:02:54.056Z,84.70
2018-11-10T13:05:22.450Z,84.48
2018-11-10T13:07:50.840Z,85.01
2018-11-10T13:10:19.189Z,84.12
2018-11-10T13:12:48.211Z,84.72
2018-11-10T13:15:17.102Z,85.08
2018-11-10T13:17:45.505Z,84.64
2018-11-10T13:20:15.018Z,85.08
2018-11-10T13:22:43.460Z,85.57
2018-11-10T13:25:12.806Z,85.36
2018-11-10T13:27:41.238Z,85.69
2018-11-10T13:30:11.403Z,85.53
2018-11-10T13:32:39.791Z,85.59
2018-11-10T13:35:08.979Z,85.97
2018-11-10T13:37:37.372Z,85.49
2018-11-10T13:40:06.403Z,86.01
2018-11-10T13:42:34.764Z,85.57
2018-11-10T13:45:03.522Z,85.67
2018-11-10T13:47:32.405Z,85.66
2018-11-10T13:50:01.547Z,85.82
2018-11-10T13:52:30.246Z,85.80
2018-11-10T13:54:58.373Z,85.61
2018-11-10T13:57:26.750Z,85.54
2018-11-10T13:59:55.141Z,85.74
2018-11-10T14:02:23.546Z,85.95
2018-11-10T14:04:51.959Z,86.28
2018-11-10T14:07:20.353Z,86.11
2018-11-10T14:09:48.785Z,86.00
2018-11-10T14:12:17.199Z,85.68
2018-11-10T14:14:45.613Z,85.77
2018-11-10T14:17:14.324Z,86.16
2018-11-10T14:19:43.122Z,85.81
2018-11-10T14:22:12.047Z,85.71
2018-11-10T14:24:40.461Z,85.91
2018-11-10T14:27:08.875Z,86.08
2018-11-10T14:29:37.389Z,85.82
2018-11-10T14:32:06.376Z,85.81
2018-11-10T14:34:34.727Z,85.49
2018-11-10T14:37:03.588Z,85.57
2018-11-10T14:39:31.971Z,86.01
2018-11-10T14:42:00.378Z,85.78
2018-11-10T14:44:28.794Z,86.17
2018-11-10T14:46:57.181Z,86.02
2018-11-10T14:49:25.816Z,85.87
2018-11-10T14:51:54.271Z,85.79
2018-11-10T14:54:22.707Z,85.63
2018-11-10T14:56:51.054Z,86.38
2018-11-10T14:59:19.478Z,86.04
2018-11-10T15:01:47.864Z,86.09
2018-11-10T15:04:16.634Z,86.32
2018-11-10T15:06:45.033Z,86.30
2018-11-10T15:09:13.444Z,86.19
2018-11-10T15:11:41.911Z,86.45
2018-11-10T15:14:10.227Z,86.68
2018-11-10T15:16:38.607Z,86.65
2018-11-10T15:19:07.376Z,87.21
2018-11-10T15:21:35.743Z,86.85
2018-11-10T15:24:04.220Z,86.71
2018-11-10T15:26:32.643Z,86.99
2018-11-10T15:29:01.655Z,86.93
2018-11-10T15:31:30.041Z,86.88
2018-11-10T15:33:58.421Z,87.23
2018-11-10T15:36:26.790Z,87.02
2018-11-10T15:38:55.174Z,87.16
2018-11-10T15:41:23.996Z,87.04
2018-11-10T15:43:52.412Z,87.37
2018-11-10T15:46:20.763Z,87.36
2018-11-10T15:48:49.132Z,87.53
2018-11-10T15:51:17.525Z,87.83
2018-11-10T15:53:45.904Z,87.60
2018-11-10T15:56:14.281Z,88.08
2018-11-10T15:58:42.795Z,87.79
2018-11-10T16:01:11.155Z,87.89
2018-11-10T16:03:39.548Z,88.00
2018-11-10T16:06:07.928Z,87.90
2018-11-10T16:08:36.296Z,88.17
2018-11-10T16:11:05.036Z,88.05
2018-11-10T16:13:33.548Z,88.34
2018-11-10T16:16:01.955Z,88.40
2018-11-10T16:18:30.302Z,88.41
2018-11-10T16:20:58.797Z,88.46
2018-11-10T16:23:27.161Z,88.89
2018-11-10T16:25:55.525Z,88.68
2018-11-10T16:28:23.977Z,89.16
2018-11-10T16:30:52.358Z,88.73
2018-11-10T16:33:20.752Z,89.00
2018-11-10T16:35:49.099Z,89.26
2018-11-10T16:38:17.479Z,88.93
2018-11-10T16:40:45.920Z,88.99
2018-11-10T16:43:14.368Z,88.96
2018-11-10T16:45:43.190Z,89.47
2018-11-10T16:48:11.608Z,89.55
2018-11-10T16:50:39.985Z,89.63
2018-11-10T16:53:08.455Z,89.38
2018-11-10T16:55:36.815Z,89.58
2018-11-10T16:58:05.602Z,90.13
2018-11-10T17:00:34.046Z,89.38
2018-11-10T17:03:02.425Z,89.94
2018-11-10T17:05:30.768Z,89.79
2018-11-10T17:07:59.153Z,90.11
2018-11-10T17:10:27.528Z,90.36
2018-11-10T17:12:56.004Z,90.22
2018-11-10T17:15:24.457Z,89.77
2018-11-10T17:17:53.755Z,90.42
2018-11-10T17:20:22.617Z,90.51
2018-11-10T17:22:51.015Z,90.57
2018-11-10T17:25:20.064Z,90.41
2018-11-10T17:27:48.459Z,90.78
2018-11-10T17:30:18.625Z,90.53
2018-11-10T17:32:47.002Z,90.80
2018-11-10T17:35:15.729Z,91.07
2018-11-10T17:37:44.812Z,91.37
2018-11-10T17:40:14.248Z,91.07
2018-11-10T17:42:42.643Z,91.48
2018-11-10T17:45:12.901Z,90.99
2018-11-10T17:47:41.885Z,91.12
2018-11-10T17:50:11.603Z,91.17
2018-11-10T17:52:41.712Z,91.31
2018-11-10T17:55:11.728Z,91.60
2018-11-10T17:57:40.736Z,91.27
2018-11-10T18:00:09.081Z,91.73
2018-11-10T18:02:37.837Z,91.29
2018-11-10T18:05:07.916Z,91.61
2018-11-10T18:07:36.331Z,91.69
2018-11-10T18:10:05.389Z,91.88
2018-11-10T18:12:33.934Z,91.88
2018-11-10T18:15:02.415Z,91.76
2018-11-10T18:17:30.796Z,91.75
2018-11-10T18:19:59.161Z,92.31
2018-11-10T18:22:27.529Z,92.15
2018-11-10T18:24:55.910Z,92.46
2018-11-10T18:27:24.289Z,92.44
2018-11-10T18:29:52.659Z,92.55
2018-11-10T18:32:21.241Z,92.57
2018-11-10T18:34:49.640Z,92.07
2018-11-10T18:37:18.302Z,92.49
2018-11-10T18:39:47.279Z,92.50
2018-11-10T18:42:15.823Z,92.67
2018-11-10T18:44:44.183Z,92.65
2018-11-10T18:47:12.586Z,92.48
2018-11-10T18:49:41.016Z,92.68
2018-11-10T18:52:09.482Z,92.62
2018-11-10T18:54:37.842Z,92.85
2018-11-10T18:57:06.552Z,92.35
2018-11-10T18:59:35.791Z,92.42
2018-11-10T19:02:04.167Z,92.56
2018-11-10T19:04:33.334Z,92.49
2018-11-10T19:07:01.762Z,92.23
2018-11-10T19:09:30.201Z,92.02
2018-11-10T19:11:58.791Z,92.09
2018-11-10T19:14:27.193Z,92.13
2018-11-10T19:16:55.658Z,91.91
2018-11-10T19:19:24.026Z,91.77
2018-11-10T19:21:52.442Z,91.80
2018-11-10T19:24:21.215Z,92.05
2018-11-10T19:26:49.572Z,92.01
2018-11-10T19:29:17.932Z,91.64
2018-11-10T19:31:46.968Z,91.48
2018-11-10T19:34:15.618Z,91.35
2018-11-10T19:36:43.987Z,91.58
2018-11-10T19:39:13.393Z,91.24
2018-11-10T19:41:42.093Z,91.67
2018-11-10T19:44:11.008Z,91.29
2018-11-10T19:46:40.478Z,91.40
2018-11-10T19:49:09.374Z,91.09
2018-11-10T19:51:37.942Z,91.57
2018-11-10T19:54:06.222Z,91.56
2018-11-10T19:56:34.601Z,91.50
2018-11-10T19:59:03.011Z,91.28
2018-11-10T20:01:31.532Z,91.30
2018-11-10T20:03:59.943Z,91.77
2018-11-10T20:06:28.371Z,91.48
2018-11-10T20:08:56.721Z,91.59
2018-11-10T20:11:25.459Z,91.67
2018-11-10T20:13:53.858Z,92.37
2018-11-10T20:16:22.265Z,92.12
2018-11-10T20:18:50.622Z,91.69
2018-11-10T20:21:19.012Z,91.74
2018-11-10T20:23:47.588Z,91.89
2018-11-10T20:26:15.968Z,91.85
2018-11-10T20:28:44.388Z,91.46
2018-11-10T20:31:12.833Z,91.77
2018-11-10T20:33:41.263Z,92.12
2018-11-10T20:36:09.700Z,91.99
2018-11-10T20:38:38.068Z,92.15
2018-11-10T20:41:07.076Z,91.82
2018-11-10T20:43:35.516Z,92.22
2018-11-10T20:46:03.896Z,92.17
2018-11-10T20:48:32.256Z,92.44
2018-11-10T20:51:00.804Z,92.91
2018-11-10T20:53:30.466Z,92.15
2018-11-10T20:55:58.931Z,92.22
2018-11-10T20:58:27.401Z,92.67
2018-11-10T21:00:55.795Z,92.78
2018-11-10T21:03:24.749Z,92.22
2018-11-10T21:05:53.183Z,92.32
2018-11-10T21:08:22.071Z,92.88
2018-11-10T21:10:50.423Z,92.62
2018-11-10T21:13:18.811Z,93.03
2018-11-10T21:15:47.182Z,92.90
2018-11-10T21:18:15.613Z,92.75
2018-11-10T21:20:44.047Z,93.04
2018-11-10T21:23:12.484Z,92.58
2018-11-10T21:25:40.876Z,92.58
2018-11-10T21:28:09.236Z,92.77
2018-11-10T21:30:37.663Z,92.78
2018-11-10T21:33:06.076Z,92.41
2018-11-10T21:35:35.130Z,92.84
2018-11-10T21:38:03.441Z,92.85
2018-11-10T21:40:32.436Z,93.06
2018-11-10T21:43:01.030Z,93.28
2018-11-10T21:45:29.487Z,92.92
2018-11-10T21:47:58.061Z,92.50
2018-11-10T21:50:26.844Z,93.12
2018-11-10T21:52:55.239Z,92.95
2018-11-10T21:55:23.612Z,92.91
2018-11-10T21:57:52.025Z,93.35
2018-11-10T22:00:21.764Z,93.10
2018-11-10T22:02:50.661Z,93.41
2018-11-10T22:05:19.550Z,93.25
2018-11-10T22:07:47.928Z,93.35
2018-11-10T22:10:17.438Z,93.42
2018-11-10T22:12:46.104Z,93.25
2018-11-10T22:15:16.864Z,93.33
2018-11-10T22:17:45.802Z,93.48
2018-11-10T22:20:16.483Z,92.99
2018-11-10T22:22:44.971Z,93.50
2018-11-10T22:25:13.852Z,93.35
2018-11-10T22:27:43.625Z,93.46
2018-11-10T22:30:15.218Z,93.25
2018-11-10T22:32:44.097Z,93.30
2018-11-10T22:35:12.608Z,93.37
2018-11-10T22:37:41.092Z,93.22
2018-11-10T22:40:11.494Z,93.48
2018-11-10T22:42:40.275Z,93.41
2018-11-10T22:45:10.412Z,93.99
2018-11-10T22:47:39.439Z,93.82
2018-11-10T22:50:09.725Z,93.72
2018-11-10T22:52:38.212Z,93.65
2018-11-10T22:55:07.387Z,94.03
2018-11-10T22:57:35.840Z,94.05
2018-11-10T23:00:05.376Z,94.37
2018-11-10T23:02:33.854Z,94.16
2018-11-10T23:05:02.249Z,93.85
2018-11-10T23:07:30.749Z,93.81
2018-11-10T23:09:59.144Z,94.50
2018-11-10T23:12:28.077Z,94.44
2018-11-10T23:14:56.458Z,94.00
2018-11-10T23:17:24.860Z,94.23
2018-11-10T23:19:53.203Z,94.13
2018-11-10T23:22:21.552Z,94.73
2018-11-10T23:24:49.937Z,94.54
2018-11-10T23:27:18.311Z,94.62
2018-11-10T23:29:46.787Z,95.10
2018-11-10T23:32:15.157Z,95.42
2018-11-10T23:34:43.553Z,94.84
2018-11-10T23:37:12.181Z,95.26
2018-11-10T23:39:40.621Z,95.09
2018-11-10T23:42:08.963Z,94.63
2018-11-10T23:44:37.376Z,95.14
2018-11-10T23:47:06.029Z,95.22
2018-11-10T23:49:34.704Z,95.26
2018-11-10T23:52:04.034Z,95.35
2018-11-10T23:54:32.401Z,95.49
2018-11-10T23:57:00.983Z,95.35
2018-11-10T23:59:29.404Z,95.67
